createdAt,value
2018-07-07T00:00:26.355Z,16.06
2018-07-07T00:02:55.583Z,16.00
2018-07-07T00:05:24.800Z,15.99
2018-07-07T00:07:54.041Z,15.88
2018-07-07T00:10:23.242Z,15.78
2018-07-07T00:12:52.430Z,15.77
2018-07-07T00:15:22.139Z,15.68
2018-07-07T00:17:51.459Z,15.71
2018-07-07T00:20:20.722Z,15.59
2018-07-07T00:22:49.889Z,15.59
2018-07-07T00:25:21.234Z,15.53
2018-07-07T00:27:51.139Z,15.56
2018-07-07T00:30:20.582Z,15.54
2018-07-07T00:32:49.826Z,15.58
2018-07-07T00:35:19.092Z,15.55
2018-07-07T00:37:48.309Z,15.49
2018-07-07T00:40:17.503Z,15.39
2018-07-07T00:42:46.690Z,15.34
2018-07-07T00:45:15.869Z,15.38
2018-07-07T00:47:45.063Z,15.42
2018-07-07T00:50:14.009Z,15.42
2018-07-07T00:52:43.202Z,15.52
2018-07-07T00:55:12.462Z,15.45
2018-07-07T00:57:41.658Z,15.34
2018-07-07T01:00:10.908Z,15.27
2018-07-07T01:02:40.127Z,15.27
2018-07-07T01:05:25.090Z,15.29
2018-07-07T01:07:54.449Z,15.29
2018-07-07T01:10:23.666Z,15.24
2018-07-07T01:12:52.625Z,15.13
2018-07-07T01:15:21.858Z,15.11
2018-07-07T01:17:51.075Z,15.22
2018-07-07T01:20:20.335Z,15.16
2018-07-07T01:22:49.570Z,15.11
2018-07-07T01:25:18.577Z,15.08
2018-07-07T01:27:47.741Z,15.07
2018-07-07T01:30:17.003Z,15.08
2018-07-07T01:32:46.239Z,15.01
2018-07-07T01:35:15.443Z,15.00
2018-07-07T01:37:44.633Z,14.98
2018-07-07T01:40:13.883Z,14.89
2018-07-07T01:42:43.066Z,14.80
2018-07-07T01:45:12.106Z,14.74
2018-07-07T01:47:41.256Z,14.77
2018-07-07T01:50:10.617Z,14.90
2018-07-07T01:52:39.810Z,14.87
2018-07-07T01:55:09.046Z,14.73
2018-07-07T01:57:38.233Z,14.73
2018-07-07T02:00:07.468Z,14.74
2018-07-07T02:02:36.703Z,14.74
2018-07-07T02:05:05.951Z,14.67
2018-07-07T02:07:35.150Z,14.62
2018-07-07T02:10:04.379Z,14.72
2018-07-07T02:12:33.606Z,14.64
2018-07-07T02:15:02.824Z,14.59
2018-07-07T02:17:32.131Z,14.59
2018-07-07T02:20:01.364Z,14.76
2018-07-07T02:22:30.578Z,14.73
2018-07-07T02:24:59.808Z,14.71
2018-07-07T02:27:29.014Z,14.63
2018-07-07T02:29:58.200Z,14.59
2018-07-07T02:32:27.443Z,14.59
2018-07-07T02:34:56.655Z,14.56
2018-07-07T02:37:25.897Z,14.59
2018-07-07T02:39:55.197Z,14.73
2018-07-07T02:42:24.403Z,14.73
2018-07-07T02:44:53.603Z,14.66
2018-07-07T02:47:22.839Z,14.63
2018-07-07T02:49:52.071Z,14.66
2018-07-07T02:52:21.303Z,14.69
2018-07-07T02:54:50.520Z,14.73
2018-07-07T02:57:19.820Z,14.75
2018-07-07T02:59:48.791Z,14.76
2018-07-07T03:02:18.020Z,14.80
2018-07-07T03:04:47.212Z,14.80
2018-07-07T03:07:16.459Z,14.86
2018-07-07T03:09:45.674Z,14.91
2018-07-07T03:12:14.859Z,14.95
2018-07-07T03:14:44.055Z,14.94
2018-07-07T03:17:13.275Z,14.95
2018-07-07T03:19:42.461Z,15.03
2018-07-07T03:22:11.763Z,15.03
2018-07-07T03:24:40.943Z,15.00
2018-07-07T03:27:10.152Z,14.94
2018-07-07T03:29:39.398Z,14.85
2018-07-07T03:32:08.607Z,14.81
2018-07-07T03:34:37.827Z,14.79
2018-07-07T03:37:07.062Z,14.77
2018-07-07T03:39:36.270Z,14.83
2018-07-07T03:42:05.590Z,14.86
2018-07-07T03:44:34.734Z,14.87
2018-07-07T03:47:03.940Z,14.94
2018-07-07T03:49:33.159Z,15.01
2018-07-07T03:52:02.368Z,15.05
2018-07-07T03:54:31.606Z,15.20
2018-07-07T03:57:01.422Z,15.27
2018-07-07T03:59:30.614Z,15.42
2018-07-07T04:01:59.855Z,15.48
2018-07-07T04:04:29.087Z,15.54
2018-07-07T04:06:58.273Z,15.58
2018-07-07T04:09:27.518Z,15.60
2018-07-07T04:11:56.722Z,15.63
2018-07-07T04:14:26.023Z,15.71
2018-07-07T04:16:55.283Z,15.80
2018-07-07T04:19:24.239Z,15.91
2018-07-07T04:21:53.553Z,15.97
2018-07-07T04:24:22.779Z,16.03
2018-07-07T04:26:52.010Z,16.15
2018-07-07T04:29:21.390Z,16.25
2018-07-07T04:31:50.639Z,16.31
2018-07-07T04:34:19.896Z,16.42
2018-07-07T04:36:49.136Z,16.45
2018-07-07T04:39:18.383Z,16.58
2018-07-07T04:41:47.594Z,16.58
2018-07-07T04:44:16.794Z,16.53
2018-07-07T04:46:46.003Z,16.55
2018-07-07T04:49:15.303Z,16.73
2018-07-07T04:51:44.506Z,16.77
2018-07-07T04:54:13.775Z,16.85
2018-07-07T04:56:42.971Z,16.90
2018-07-07T04:59:11.982Z,16.94
2018-07-07T05:01:41.267Z,17.02
2018-07-07T05:04:10.495Z,17.04
2018-07-07T05:06:39.490Z,17.06
2018-07-07T05:09:08.729Z,17.30
2018-07-07T05:11:37.790Z,17.62
2018-07-07T05:14:07.110Z,17.86
2018-07-07T05:16:36.298Z,17.71
2018-07-07T05:19:05.551Z,18.17
2018-07-07T05:21:34.802Z,19.15
2018-07-07T05:24:04.028Z,20.06
2018-07-07T05:26:33.365Z,20.13
2018-07-07T05:29:02.674Z,19.78
2018-07-07T05:31:31.946Z,19.65
2018-07-07T05:34:00.929Z,19.40
2018-07-07T05:36:30.212Z,19.64
2018-07-07T05:38:59.429Z,19.48
2018-07-07T05:41:28.651Z,19.90
2018-07-07T05:43:57.907Z,20.61
2018-07-07T05:46:27.170Z,20.99
2018-07-07T05:48:56.523Z,21.28
2018-07-07T05:51:25.875Z,21.52
2018-07-07T05:53:55.320Z,22.04
2018-07-07T05:56:24.655Z,22.70
2018-07-07T05:58:53.988Z,22.14
2018-07-07T06:01:23.607Z,22.14
2018-07-07T06:03:52.827Z,22.36
2018-07-07T06:06:22.078Z,22.31
2018-07-07T06:08:51.315Z,22.47
2018-07-07T06:11:20.522Z,21.88
2018-07-07T06:13:49.882Z,22.03
2018-07-07T06:16:19.137Z,22.50
2018-07-07T06:18:48.398Z,21.81
2018-07-07T06:21:17.634Z,22.56
2018-07-07T06:23:46.895Z,21.50
2018-07-07T06:26:16.180Z,20.98
2018-07-07T06:28:45.479Z,20.94
2018-07-07T06:31:14.706Z,21.03
2018-07-07T06:33:44.110Z,20.54
2018-07-07T06:36:13.412Z,20.66
2018-07-07T06:38:42.914Z,20.66
2018-07-07T06:41:12.239Z,21.00
2018-07-07T06:43:41.479Z,21.27
2018-07-07T06:46:10.810Z,21.21
2018-07-07T06:48:40.036Z,21.25
2018-07-07T06:51:09.287Z,20.98
2018-07-07T06:53:38.712Z,21.67
2018-07-07T06:56:08.029Z,22.15
2018-07-07T06:58:37.262Z,22.40
2018-07-07T07:01:06.539Z,22.27
2018-07-07T07:03:35.757Z,21.94
2018-07-07T07:06:05.065Z,22.63
2018-07-07T07:08:34.346Z,21.61
2018-07-07T07:11:03.590Z,21.99
2018-07-07T07:13:32.863Z,22.16
2018-07-07T07:16:02.212Z,22.06
2018-07-07T07:18:31.434Z,22.38
2018-07-07T07:21:00.655Z,22.18
2018-07-07T07:23:29.886Z,21.93
2018-07-07T07:25:59.214Z,22.16
2018-07-07T07:28:28.507Z,22.81
2018-07-07T07:30:57.848Z,23.15
2018-07-07T07:33:27.082Z,22.87
2018-07-07T07:35:56.314Z,22.73
2018-07-07T07:38:25.554Z,22.94
2018-07-07T07:40:54.767Z,23.08
2018-07-07T07:43:23.978Z,23.07
2018-07-07T07:45:54.281Z,22.60
2018-07-07T07:48:24.116Z,22.48
2018-07-07T07:50:53.268Z,22.79
2018-07-07T07:53:22.553Z,23.21
2018-07-07T07:55:51.902Z,23.18
2018-07-07T07:58:21.130Z,22.79
2018-07-07T08:00:50.401Z,23.31
2018-07-07T08:03:19.734Z,23.49
2018-07-07T08:05:48.973Z,23.46
2018-07-07T08:08:18.567Z,23.42
2018-07-07T08:10:48.710Z,23.73
2018-07-07T08:13:18.210Z,24.10
2018-07-07T08:15:47.461Z,23.83
2018-07-07T08:18:18.241Z,24.28
2018-07-07T08:20:48.578Z,24.48
2018-07-07T08:23:17.787Z,24.34
2018-07-07T08:25:47.120Z,24.57
2018-07-07T08:28:16.469Z,24.35
2018-07-07T08:30:45.803Z,24.51
2018-07-07T08:33:15.089Z,24.29
2018-07-07T08:35:44.196Z,24.27
2018-07-07T08:38:15.261Z,24.11
2018-07-07T08:40:44.974Z,24.02
2018-07-07T08:43:16.774Z,24.34
2018-07-07T08:45:46.562Z,24.43
2018-07-07T08:48:16.597Z,24.59
2018-07-07T08:50:46.827Z,24.62
2018-07-07T08:53:16.257Z,24.83
2018-07-07T08:55:46.391Z,25.26
2018-07-07T08:58:15.784Z,25.53
2018-07-07T09:00:45.756Z,25.24
2018-07-07T09:03:15.036Z,24.49
2018-07-07T09:05:44.445Z,25.27
2018-07-07T09:08:14.613Z,25.00
2018-07-07T09:10:44.213Z,25.39
2018-07-07T09:13:13.559Z,25.56
2018-07-07T09:15:42.878Z,25.32
2018-07-07T09:18:12.200Z,25.19
2018-07-07T09:20:41.451Z,25.04
2018-07-07T09:23:10.805Z,25.52
2018-07-07T09:25:40.103Z,25.53
2018-07-07T09:28:09.338Z,26.29
2018-07-07T09:30:38.624Z,26.80
2018-07-07T09:33:07.642Z,26.31
2018-07-07T09:35:37.008Z,25.35
2018-07-07T09:38:06.308Z,24.89
2018-07-07T09:40:35.596Z,25.13
2018-07-07T09:43:04.877Z,24.57
2018-07-07T09:45:34.113Z,25.13
2018-07-07T09:48:03.596Z,25.42
2018-07-07T09:50:33.011Z,25.59
2018-07-07T09:53:02.259Z,25.79
2018-07-07T09:55:31.559Z,25.66
2018-07-07T09:58:00.596Z,25.56
2018-07-07T10:00:35.293Z,25.96
2018-07-07T10:03:04.590Z,25.53
2018-07-07T10:05:33.898Z,25.03
2018-07-07T10:08:03.226Z,25.33
2018-07-07T10:10:32.674Z,25.68
2018-07-07T10:13:01.983Z,25.79
2018-07-07T10:15:31.257Z,26.01
2018-07-07T10:18:00.553Z,26.21
2018-07-07T10:20:29.826Z,27.18
2018-07-07T10:22:59.119Z,26.97
2018-07-07T10:25:28.403Z,26.52
2018-07-07T10:27:57.700Z,26.74
2018-07-07T10:30:27.060Z,26.25
2018-07-07T10:32:56.371Z,26.33
2018-07-07T10:35:25.669Z,26.29
2018-07-07T10:37:54.959Z,26.44
2018-07-07T10:40:24.242Z,26.52
2018-07-07T10:42:53.479Z,26.50
2018-07-07T10:45:22.767Z,26.44
2018-07-07T10:47:51.958Z,26.37
2018-07-07T10:50:21.218Z,26.78
2018-07-07T10:52:50.508Z,25.64
2018-07-07T10:55:19.787Z,25.94
2018-07-07T10:57:49.081Z,26.07
2018-07-07T11:00:18.393Z,26.19
2018-07-07T11:02:47.648Z,26.43
2018-07-07T11:05:16.887Z,25.48
2018-07-07T11:07:46.201Z,26.19
2018-07-07T11:10:15.593Z,25.68
2018-07-07T11:12:44.967Z,25.47
2018-07-07T11:15:14.284Z,25.73
2018-07-07T11:17:43.593Z,25.97
2018-07-07T11:20:12.843Z,26.98
2018-07-07T11:22:42.091Z,27.47
2018-07-07T11:25:11.332Z,27.36
2018-07-07T11:27:40.622Z,27.49
2018-07-07T11:30:10.008Z,27.10
2018-07-07T11:32:39.276Z,26.18
2018-07-07T11:35:08.518Z,25.60
2018-07-07T11:37:37.804Z,25.57
2018-07-07T11:40:07.131Z,26.08
2018-07-07T11:42:36.455Z,26.72
2018-07-07T11:45:05.785Z,27.16
2018-07-07T11:47:35.121Z,26.88
2018-07-07T11:50:04.548Z,27.19
2018-07-07T11:52:33.874Z,27.13
2018-07-07T11:55:03.097Z,27.39
2018-07-07T11:57:32.359Z,27.96
2018-07-07T12:00:01.722Z,28.15
2018-07-07T12:02:31.032Z,27.60
2018-07-07T12:05:00.303Z,27.44
2018-07-07T12:07:29.609Z,26.52
2018-07-07T12:09:58.953Z,26.29
2018-07-07T12:12:28.267Z,25.77
2018-07-07T12:14:57.602Z,26.08
2018-07-07T12:17:27.004Z,26.62
2018-07-07T12:19:56.263Z,25.97
2018-07-07T12:22:25.783Z,26.12
2018-07-07T12:24:55.150Z,27.01
2018-07-07T12:27:24.423Z,26.55
2018-07-07T12:29:53.802Z,26.17
2018-07-07T12:32:22.963Z,26.12
2018-07-07T12:34:52.278Z,25.65
2018-07-07T12:37:21.643Z,25.85
2018-07-07T12:39:50.701Z,25.86
2018-07-07T12:42:20.221Z,25.80
2018-07-07T12:44:49.524Z,25.24
2018-07-07T12:47:18.790Z,26.34
2018-07-07T12:49:47.863Z,27.00
2018-07-07T12:52:17.228Z,27.62
2018-07-07T12:54:46.539Z,27.65
2018-07-07T12:57:15.810Z,28.29
2018-07-07T12:59:45.281Z,27.99
2018-07-07T13:02:14.563Z,27.35
2018-07-07T13:04:43.886Z,27.25
2018-07-07T13:07:13.149Z,27.97
2018-07-07T13:09:42.524Z,27.92
2018-07-07T13:12:11.863Z,28.25
2018-07-07T13:14:41.905Z,28.07
2018-07-07T13:17:11.882Z,28.62
2018-07-07T13:19:41.284Z,28.73
2018-07-07T13:22:10.597Z,28.50
2018-07-07T13:24:40.747Z,28.86
2018-07-07T13:27:10.313Z,29.34
2018-07-07T13:29:39.609Z,28.23
2018-07-07T13:32:09.875Z,27.20
2018-07-07T13:34:40.050Z,27.62
2018-07-07T13:37:09.368Z,26.82
2018-07-07T13:39:39.987Z,26.23
2018-07-07T13:42:10.759Z,26.07
2018-07-07T13:44:40.461Z,26.47
2018-07-07T13:47:10.045Z,27.34
2018-07-07T13:49:39.741Z,27.79
2018-07-07T13:52:09.101Z,28.39
2018-07-07T13:54:38.399Z,27.96
2018-07-07T13:57:07.758Z,26.57
2018-07-07T13:59:36.853Z,26.43
2018-07-07T14:02:06.330Z,26.42
2018-07-07T14:04:35.679Z,27.00
2018-07-07T14:07:05.148Z,27.93
2018-07-07T14:09:34.672Z,27.01
2018-07-07T14:12:06.304Z,27.00
2018-07-07T14:14:36.343Z,26.60
2018-07-07T14:17:08.000Z,27.66
2018-07-07T14:19:40.247Z,28.17
2018-07-07T14:22:09.781Z,27.28
2018-07-07T14:24:39.800Z,27.85
2018-07-07T14:27:11.831Z,28.35
2018-07-07T14:29:43.292Z,28.65
2018-07-07T14:32:14.986Z,28.75
2018-07-07T14:34:47.499Z,28.84
2018-07-07T14:37:17.440Z,28.07
2018-07-07T14:39:58.364Z,28.02
2018-07-07T14:42:44.179Z,28.33
2018-07-07T14:45:34.939Z,28.55
2018-07-07T14:48:08.978Z,27.97
2018-07-07T14:50:43.012Z,28.51
2018-07-07T14:53:15.022Z,28.19
2018-07-07T14:55:46.436Z,27.99
2018-07-07T14:58:18.505Z,28.63
2018-07-07T15:00:50.330Z,28.75
2018-07-07T15:03:22.188Z,28.54
2018-07-07T15:05:53.090Z,28.85
2018-07-07T15:08:23.836Z,29.11
2018-07-07T15:10:53.226Z,29.36
2018-07-07T15:13:22.483Z,28.60
2018-07-07T15:15:51.797Z,28.40
2018-07-07T15:18:21.778Z,28.79
2018-07-07T15:20:51.786Z,28.65
2018-07-07T15:23:23.996Z,28.84
2018-07-07T15:25:57.490Z,28.65
2018-07-07T15:28:26.887Z,28.41
2018-07-07T15:30:56.241Z,27.54
2018-07-07T15:33:25.610Z,27.50
2018-07-07T15:35:54.971Z,27.29
2018-07-07T15:38:24.306Z,27.59
2018-07-07T15:40:53.685Z,27.41
2018-07-07T15:43:23.107Z,27.35
2018-07-07T15:45:52.470Z,27.93
2018-07-07T15:48:21.784Z,27.31
2018-07-07T15:50:51.155Z,27.53
2018-07-07T15:53:20.530Z,27.72
2018-07-07T15:55:49.897Z,27.97
2018-07-07T15:58:19.302Z,27.67
2018-07-07T16:00:48.745Z,27.61
2018-07-07T16:03:18.066Z,27.17
2018-07-07T16:05:47.425Z,26.83
2018-07-07T16:08:16.795Z,26.50
2018-07-07T16:10:46.151Z,26.41
2018-07-07T16:13:15.565Z,26.28
2018-07-07T16:15:44.867Z,26.79
2018-07-07T16:18:14.189Z,27.13
2018-07-07T16:20:46.867Z,26.47
2018-07-07T16:23:33.463Z,26.93
2018-07-07T16:29:21.862Z,27.34
2018-07-07T16:32:18.032Z,27.73
2018-07-07T16:35:41.437Z,27.56
2018-07-07T16:38:14.595Z,27.65
2018-07-07T16:40:45.232Z,27.43
2018-07-07T16:43:16.793Z,27.58
2018-07-07T16:45:48.588Z,27.67
2018-07-07T16:48:19.281Z,27.52
2018-07-07T16:50:48.574Z,27.24
2018-07-07T16:53:17.958Z,27.95
2018-07-07T16:55:48.301Z,28.08
2018-07-07T16:58:17.616Z,28.97
2018-07-07T17:00:47.065Z,29.02
2018-07-07T17:03:16.424Z,29.60
2018-07-07T17:05:45.760Z,29.06
2018-07-07T17:08:15.788Z,29.55
2018-07-07T17:10:45.389Z,29.67
2018-07-07T17:13:14.999Z,29.67
2018-07-07T17:15:44.446Z,29.68
2018-07-07T17:18:13.721Z,29.63
2018-07-07T17:20:42.951Z,29.25
2018-07-07T17:23:12.218Z,28.18
2018-07-07T17:25:41.489Z,27.76
2018-07-07T17:28:10.860Z,27.32
2018-07-07T17:30:40.208Z,27.01
2018-07-07T17:33:09.467Z,26.46
2018-07-07T17:35:38.734Z,26.18
2018-07-07T17:38:07.981Z,25.76
2018-07-07T17:40:37.375Z,25.67
2018-07-07T17:43:06.675Z,25.69
2018-07-07T17:45:36.303Z,25.63
2018-07-07T17:48:05.637Z,25.44
2018-07-07T17:50:34.947Z,25.41
2018-07-07T17:53:04.726Z,25.26
2018-07-07T17:55:34.095Z,25.07
2018-07-07T17:58:03.499Z,25.11
2018-07-07T18:00:32.906Z,24.88
2018-07-07T18:03:03.015Z,24.80
2018-07-07T18:05:32.379Z,24.64
2018-07-07T18:08:01.662Z,24.51
2018-07-07T18:10:31.051Z,24.40
2018-07-07T18:13:00.415Z,24.22
2018-07-07T18:15:37.468Z,24.08
2018-07-07T18:18:10.815Z,24.02
2018-07-07T18:20:41.569Z,23.92
2018-07-07T18:23:12.301Z,23.75
2018-07-07T18:25:46.622Z,23.88
2018-07-07T18:28:16.902Z,23.96
2018-07-07T18:30:46.995Z,23.91
2018-07-07T18:33:18.219Z,23.73
2018-07-07T18:35:48.323Z,23.56
2018-07-07T18:38:18.997Z,23.43
2018-07-07T18:40:50.097Z,23.43
2018-07-07T18:43:20.171Z,23.37
2018-07-07T18:45:50.972Z,23.33
2018-07-07T18:48:20.327Z,23.18
2018-07-07T18:50:49.696Z,23.08
2018-07-07T18:53:18.702Z,23.03
2018-07-07T18:55:48.132Z,22.97
2018-07-07T18:58:17.169Z,22.92
2018-07-07T19:00:46.461Z,22.87
2018-07-07T19:03:15.724Z,22.78
2018-07-07T19:05:45.769Z,22.62
2018-07-07T19:08:15.148Z,22.54
2018-07-07T19:10:44.509Z,22.49
2018-07-07T19:13:13.822Z,22.46
2018-07-07T19:15:46.389Z,22.38
2018-07-07T19:18:16.092Z,22.27
2018-07-07T19:20:50.692Z,22.22
2018-07-07T19:23:25.312Z,22.18
2018-07-07T19:25:59.888Z,22.20
2018-07-07T19:28:29.225Z,22.28
2018-07-07T19:30:58.435Z,22.22
2018-07-07T19:33:32.919Z,22.18
2018-07-07T19:36:07.373Z,22.16
2018-07-07T19:38:36.646Z,22.09
2018-07-07T19:41:05.778Z,22.06
2018-07-07T19:43:35.108Z,21.95
2018-07-07T19:46:04.441Z,21.90
2018-07-07T19:48:33.783Z,21.97
2018-07-07T19:51:03.091Z,21.98
2018-07-07T19:53:32.380Z,21.94
2018-07-07T19:56:01.785Z,21.94
2018-07-07T19:58:31.150Z,21.93
2018-07-07T20:01:00.447Z,21.90
2018-07-07T20:03:29.758Z,21.89
2018-07-07T20:05:59.083Z,21.90
2018-07-07T20:08:28.369Z,21.81
2018-07-07T20:10:57.641Z,21.71
2018-07-07T20:13:26.902Z,21.63
2018-07-07T20:16:17.288Z,21.59
2018-07-07T20:19:16.476Z,21.52
2018-07-07T20:22:04.360Z,21.47
2018-07-07T20:24:39.587Z,21.47
2018-07-07T20:27:14.853Z,21.44
2018-07-07T20:29:44.263Z,21.43
2018-07-07T20:32:18.835Z,21.43
2018-07-07T20:34:48.103Z,21.52
2018-07-07T20:37:17.399Z,21.81
2018-07-07T20:39:46.761Z,21.83
2018-07-07T20:42:16.037Z,21.76
2018-07-07T20:44:45.341Z,21.69
2018-07-07T20:47:14.640Z,21.66
2018-07-07T20:49:43.874Z,21.58
2018-07-07T20:52:12.956Z,21.51
2018-07-07T20:54:42.461Z,21.50
2018-07-07T20:57:11.714Z,21.42
2018-07-07T20:59:40.963Z,21.40
2018-07-07T21:02:10.209Z,21.36
2018-07-07T21:04:39.366Z,21.32
2018-07-07T21:07:08.627Z,21.24
2018-07-07T21:09:37.829Z,21.15
2018-07-07T21:12:07.195Z,21.04
2018-07-07T21:14:36.445Z,20.93
2018-07-07T21:17:05.830Z,20.88
2018-07-07T21:19:35.267Z,20.80
2018-07-07T21:22:04.249Z,20.65
2018-07-07T21:24:33.521Z,20.62
2018-07-07T21:27:02.757Z,20.67
2018-07-07T21:29:31.975Z,20.58
2018-07-07T21:32:01.229Z,20.50
2018-07-07T21:34:30.570Z,20.47
2018-07-07T21:36:59.916Z,20.36
2018-07-07T21:39:29.166Z,20.19
2018-07-07T21:41:58.736Z,20.07
2018-07-07T21:44:28.046Z,20.01
2018-07-07T21:46:57.011Z,19.95
2018-07-07T21:49:26.359Z,19.91
2018-07-07T21:51:55.747Z,19.79
2018-07-07T21:54:24.986Z,19.81
2018-07-07T21:56:55.750Z,19.73
2018-07-07T21:59:25.410Z,19.65
2018-07-07T22:02:00.280Z,19.56
2018-07-07T22:04:35.724Z,19.48
2018-07-07T22:07:12.131Z,19.45
2018-07-07T22:09:41.893Z,19.40
2018-07-07T22:12:11.116Z,19.35
2018-07-07T22:14:40.451Z,19.36
2018-07-07T22:17:09.702Z,19.30
2018-07-07T22:19:38.907Z,19.25
2018-07-07T22:22:09.263Z,19.25
2018-07-07T22:24:39.382Z,19.23
2018-07-07T22:27:09.833Z,19.25
2018-07-07T22:29:39.051Z,19.20
2018-07-07T22:32:13.678Z,19.19
2018-07-07T22:34:43.094Z,19.21
2018-07-07T22:37:12.309Z,19.30
2018-07-07T22:39:43.535Z,19.30
2018-07-07T22:42:15.844Z,19.27
2018-07-07T22:44:46.303Z,19.21
2018-07-07T22:47:15.627Z,19.16
2018-07-07T22:49:44.910Z,19.15
2018-07-07T22:52:14.201Z,19.14
2018-07-07T22:54:43.505Z,19.13
2018-07-07T22:57:12.711Z,19.10
2018-07-07T22:59:41.904Z,19.09
2018-07-07T23:02:11.127Z,19.08
2018-07-07T23:04:40.371Z,19.09
2018-07-07T23:07:09.575Z,19.09
2018-07-07T23:09:38.795Z,19.11
2018-07-07T23:12:08.016Z,19.09
2018-07-07T23:14:37.246Z,18.96
2018-07-07T23:17:06.439Z,18.94
2018-07-07T23:19:35.687Z,18.94
2018-07-07T23:22:04.891Z,18.93
2018-07-07T23:24:34.151Z,18.96
2018-07-07T23:27:03.443Z,18.89
2018-07-07T23:29:32.663Z,18.90
2018-07-07T23:32:01.884Z,18.79
2018-07-07T23:34:31.196Z,18.73
2018-07-07T23:37:00.435Z,18.70
2018-07-07T23:39:29.659Z,18.67
2018-07-07T23:41:58.866Z,18.68
2018-07-07T23:44:28.085Z,18.69
2018-07-07T23:46:57.326Z,18.62
2018-07-07T23:49:26.532Z,18.56
2018-07-07T23:51:55.706Z,18.49
2018-07-07T23:54:24.942Z,18.50
2018-07-07T23:56:54.194Z,18.48
2018-07-07T23:59:23.406Z,18.43
